Hallam, NE (68368)

6:17 AM CDT on September 30, 2014 (GMT -0500)
Stone Ridge 21st & Yankee Hill | Change Station
CLOSE
Current Station
Personal Weather Station
Location: Lincoln, NE
Elevation: 1180 ft
Nearby Weather Stations

Elev 1180 ft 40.73 °N, 96.69 °W | Updated 5 minutes ago

Overcast
Overcast
67.8 °F
Feels Like 67.8 °F
N
2.0
Wind Variable Wind from South
Gusts 6.9 mph

Today
High -- | Low -- °F
--% Chance of Precip.
Yesterday
High -- | Low -- °F
Precip. -- in
7:22 AM 7:10 PM
Waxing Crescent, 35% visible
Pressure 29.87 in
Visibility 10.0 miles
Clouds Overcast 9000 ft
Dew Point 52 °F
Humidity 58%
Rainfall -999.00 in
Snow Depth Not available.
UV 0 out of 12
Pollen 4.20 out of 12
Air Quality Not available.
Flu Activity Not available.
METAR KBIE 301055Z AUTO 16010KT 10SM OVC090 20/15 A2987 RMK AO2 LTG DSNT NW T01990150

More Conditions Fewer Conditions

Pressure 29.87 in
Visibility 10.0 miles
Clouds Overcast 9000 ft
Dew Point 52 °F
Humidity 58%
Rainfall -999.00 in
Snow Depth Not available.
UV 0 out of 12
Pollen 4.20 out of 12
Air Quality Not available.
Flu Activity Not available.
METAR KBIE 301055Z AUTO 16010KT 10SM OVC090 20/15 A2987 RMK AO2 LTG DSNT NW T01990150

More Conditions Fewer Conditions

10-Day Weather Forecast

Almanac

Astronomy

Sep. 30, 2014 Rise Set
Actual Time 7:22 AM CDT 7:10 PM CDT
Civil Twilight 6:55 AM CDT 7:38 PM CDT
Nautical Twilight 6:23 AM CDT 8:09 PM CDT
Astronomical Twilight 5:51 AM CDT 8:41 PM CDT
Moon 1:33 PM CDT 11:41 PM CDT
Length of Visible Light 12h 42m
Length of Day
11h 48m
Tomorrow will be 2m 39s shorter.
Waxing Crescent, 35% of the Moon is Illuminated
Today
Waxing Crescent
Oct 1
First Quarter
Oct 8
Full
Oct 15
Last Quarter
Oct 23
New

Today's Extremes

State Highs State Lows

Community

WunderPhotos

Upload Photos

1,757,615 photos uploaded!

WunderBlogs® & News

Nearby

Snow Depth

Station Depth Elevation
No new snow has been reported.

Earthquake Activity

City Distance Mag. Time & Date
No recent earthquake activity has been reported nearby.
Minimum magnitude displayed is 2.5.

Coastal Water Temperatures

Place Temperature
No Stations Reporting

Nearby Weather Stations